sensor_id;sensor_type;location;lat;lon;timestamp;P1;durP1;ratioP1;P2;durP2;ratioP2
46216;SDS011;47258;59.424;13.482;2022-09-03T00:02:12;1.13;;;0.40;;
46216;SDS011;47258;59.424;13.482;2022-09-03T00:04:59;0.85;;;0.43;;
46216;SDS011;47258;59.424;13.482;2022-09-03T00:07:53;0.85;;;0.47;;
46216;SDS011;47258;59.424;13.482;2022-09-03T00:13:35;2.90;;;0.80;;
46216;SDS011;47258;59.424;13.482;2022-09-03T00:16:25;1.85;;;0.68;;
46216;SDS011;47258;59.424;13.482;2022-09-03T00:19:25;0.40;;;0.40;;
46216;SDS011;47258;59.424;13.482;2022-09-03T00:22:14;1.17;;;0.70;;
46216;SDS011;47258;59.424;13.482;2022-09-03T00:25:08;0.70;;;0.60;;
46216;SDS011;47258;59.424;13.482;2022-09-03T00:27:58;0.70;;;0.70;;
46216;SDS011;47258;59.424;13.482;2022-09-03T00:31:01;0.70;;;0.70;;
46216;SDS011;47258;59.424;13.482;2022-09-03T00:33:57;0.93;;;0.85;;
46216;SDS011;47258;59.424;13.482;2022-09-03T00:36:44;0.60;;;0.60;;
46216;SDS011;47258;59.424;13.482;2022-09-03T00:39:25;0.95;;;0.93;;
46216;SDS011;47258;59.424;13.482;2022-09-03T00:42:30;0.77;;;0.77;;
46216;SDS011;47258;59.424;13.482;2022-09-03T00:45:31;1.10;;;0.95;;
46216;SDS011;47258;59.424;13.482;2022-09-03T00:48:29;0.50;;;0.50;;
46216;SDS011;47258;59.424;13.482;2022-09-03T00:51:15;0.50;;;0.45;;
46216;SDS011;47258;59.424;13.482;2022-09-03T00:54:12;0.57;;;0.57;;
46216;SDS011;47258;59.424;13.482;2022-09-03T00:57:11;1.35;;;0.70;;
46216;SDS011;47258;59.424;13.482;2022-09-03T01:00:06;2.20;;;0.75;;
46216;SDS011;47258;59.424;13.482;2022-09-03T01:02:46;0.80;;;0.80;;
46216;SDS011;47258;59.424;13.482;2022-09-03T01:05:52;0.40;;;0.40;;
46216;SDS011;47258;59.424;13.482;2022-09-03T01:08:58;1.50;;;0.90;;
46216;SDS011;47258;59.424;13.482;2022-09-03T01:11:55;1.38;;;0.60;;
46216;SDS011;47258;59.424;13.482;2022-09-03T01:14:52;0.63;;;0.52;;
46216;SDS011;47258;59.424;13.482;2022-09-03T01:17:50;4.18;;;0.80;;
46216;SDS011;47258;59.424;13.482;2022-09-03T01:21:01;0.50;;;0.50;;
46216;SDS011;47258;59.424;13.482;2022-09-03T01:24:08;0.70;;;0.70;;
46216;SDS011;47258;59.424;13.482;2022-09-03T01:27:05;0.83;;;0.50;;
46216;SDS011;47258;59.424;13.482;2022-09-03T01:30:11;0.75;;;0.60;;
46216;SDS011;47258;59.424;13.482;2022-09-03T01:33:02;1.90;;;0.70;;
46216;SDS011;47258;59.424;13.482;2022-09-03T01:35:50;0.85;;;0.55;;
46216;SDS011;47258;59.424;13.482;2022-09-03T01:38:36;0.45;;;0.45;;
46216;SDS011;47258;59.424;13.482;2022-09-03T01:41:32;4.68;;;0.63;;
46216;SDS011;47258;59.424;13.482;2022-09-03T01:44:32;0.95;;;0.50;;
46216;SDS011;47258;59.424;13.482;2022-09-03T01:47:36;2.95;;;0.52;;
46216;SDS011;47258;59.424;13.482;2022-09-03T01:50:33;0.57;;;0.40;;
46216;SDS011;47258;59.424;13.482;2022-09-03T01:53:37;0.52;;;0.52;;
46216;SDS011;47258;59.424;13.482;2022-09-03T01:56:36;2.65;;;0.60;;
46216;SDS011;47258;59.424;13.482;2022-09-03T01:59:36;0.80;;;0.80;;
46216;SDS011;47258;59.424;13.482;2022-09-03T02:02:31;1.77;;;0.45;;
46216;SDS011;47258;59.424;13.482;2022-09-03T02:05:14;0.57;;;0.43;;
46216;SDS011;47258;59.424;13.482;2022-09-03T02:08:04;3.65;;;0.60;;
46216;SDS011;47258;59.424;13.482;2022-09-03T02:10:44;0.63;;;0.63;;
46216;SDS011;47258;59.424;13.482;2022-09-03T02:13:32;1.70;;;1.05;;
46216;SDS011;47258;59.424;13.482;2022-09-03T02:16:30;1.00;;;0.90;;
46216;SDS011;47258;59.424;13.482;2022-09-03T02:19:14;1.45;;;0.73;;
46216;SDS011;47258;59.424;13.482;2022-09-03T02:21:48;0.88;;;0.85;;
46216;SDS011;47258;59.424;13.482;2022-09-03T02:24:30;2.15;;;0.75;;
46216;SDS011;47258;59.424;13.482;2022-09-03T02:27:05;0.47;;;0.47;;
46216;SDS011;47258;59.424;13.482;2022-09-03T02:29:51;1.48;;;0.70;;
46216;SDS011;47258;59.424;13.482;2022-09-03T02:32:31;0.52;;;0.52;;
46216;SDS011;47258;59.424;13.482;2022-09-03T02:35:13;1.52;;;1.00;;
46216;SDS011;47258;59.424;13.482;2022-09-03T02:37:56;0.90;;;0.60;;
46216;SDS011;47258;59.424;13.482;2022-09-03T02:40:53;6.90;;;0.70;;
46216;SDS011;47258;59.424;13.482;2022-09-03T02:43:48;0.80;;;0.50;;
46216;SDS011;47258;59.424;13.482;2022-09-03T02:46:23;1.08;;;1.08;;
46216;SDS011;47258;59.424;13.482;2022-09-03T02:49:10;3.50;;;0.65;;
46216;SDS011;47258;59.424;13.482;2022-09-03T02:52:03;0.55;;;0.55;;
46216;SDS011;47258;59.424;13.482;2022-09-03T02:54:51;0.82;;;0.70;;
46216;SDS011;47258;59.424;13.482;2022-09-03T02:57:31;2.22;;;0.70;;
46216;SDS011;47258;59.424;13.482;2022-09-03T03:00:16;0.65;;;0.65;;
46216;SDS011;47258;59.424;13.482;2022-09-03T03:03:06;0.63;;;0.63;;
46216;SDS011;47258;59.424;13.482;2022-09-03T03:05:46;1.10;;;0.60;;
46216;SDS011;47258;59.424;13.482;2022-09-03T03:08:29;0.88;;;0.63;;
46216;SDS011;47258;59.424;13.482;2022-09-03T03:11:14;0.93;;;0.75;;
46216;SDS011;47258;59.424;13.482;2022-09-03T03:13:53;0.80;;;0.80;;
46216;SDS011;47258;59.424;13.482;2022-09-03T03:16:33;2.35;;;0.98;;
46216;SDS011;47258;59.424;13.482;2022-09-03T03:19:13;0.82;;;0.80;;
46216;SDS011;47258;59.424;13.482;2022-09-03T03:21:57;0.85;;;0.80;;
46216;SDS011;47258;59.424;13.482;2022-09-03T03:27:49;2.55;;;0.60;;
46216;SDS011;47258;59.424;13.482;2022-09-03T03:30:36;2.05;;;1.42;;
46216;SDS011;47258;59.424;13.482;2022-09-03T03:33:27;5.45;;;0.95;;
46216;SDS011;47258;59.424;13.482;2022-09-03T03:36:12;0.90;;;0.85;;
46216;SDS011;47258;59.424;13.482;2022-09-03T03:38:58;0.80;;;0.80;;
46216;SDS011;47258;59.424;13.482;2022-09-03T03:44:27;5.43;;;0.68;;
46216;SDS011;47258;59.424;13.482;2022-09-03T03:47:12;1.55;;;0.70;;
46216;SDS011;47258;59.424;13.482;2022-09-03T03:50:02;1.55;;;0.50;;
46216;SDS011;47258;59.424;13.482;2022-09-03T03:52:39;0.47;;;0.47;;
46216;SDS011;47258;59.424;13.482;2022-09-03T03:55:32;0.80;;;0.50;;
46216;SDS011;47258;59.424;13.482;2022-09-03T03:58:28;2.65;;;1.15;;
46216;SDS011;47258;59.424;13.482;2022-09-03T04:01:20;0.93;;;0.70;;
46216;SDS011;47258;59.424;13.482;2022-09-03T04:04:01;0.85;;;0.75;;
46216;SDS011;47258;59.424;13.482;2022-09-03T04:06:40;1.48;;;0.63;;
46216;SDS011;47258;59.424;13.482;2022-09-03T04:09:30;0.90;;;0.90;;
46216;SDS011;47258;59.424;13.482;2022-09-03T04:12:23;0.90;;;0.50;;
46216;SDS011;47258;59.424;13.482;2022-09-03T04:15:19;0.50;;;0.50;;
46216;SDS011;47258;59.424;13.482;2022-09-03T04:18:07;1.33;;;0.75;;
46216;SDS011;47258;59.424;13.482;2022-09-03T04:20:52;2.92;;;0.70;;
46216;SDS011;47258;59.424;13.482;2022-09-03T04:23:47;0.73;;;0.73;;
46216;SDS011;47258;59.424;13.482;2022-09-03T04:26:32;2.47;;;0.73;;
46216;SDS011;47258;59.424;13.482;2022-09-03T04:29:23;5.57;;;1.08;;
46216;SDS011;47258;59.424;13.482;2022-09-03T04:32:21;2.90;;;0.98;;
46216;SDS011;47258;59.424;13.482;2022-09-03T04:35:10;0.52;;;0.52;;
46216;SDS011;47258;59.424;13.482;2022-09-03T04:38:01;0.60;;;0.60;;
46216;SDS011;47258;59.424;13.482;2022-09-03T04:40:54;0.68;;;0.68;;
46216;SDS011;47258;59.424;13.482;2022-09-03T04:43:44;2.05;;;0.88;;
46216;SDS011;47258;59.424;13.482;2022-09-03T04:46:26;1.30;;;0.73;;
46216;SDS011;47258;59.424;13.482;2022-09-03T04:49:22;0.70;;;0.70;;
46216;SDS011;47258;59.424;13.482;2022-09-03T04:52:20;0.93;;;0.80;;
46216;SDS011;47258;59.424;13.482;2022-09-03T04:55:03;1.02;;;0.90;;
46216;SDS011;47258;59.424;13.482;2022-09-03T04:57:48;3.45;;;1.13;;
46216;SDS011;47258;59.424;13.482;2022-09-03T05:00:32;1.33;;;0.73;;
46216;SDS011;47258;59.424;13.482;2022-09-03T05:03:18;1.70;;;1.15;;
46216;SDS011;47258;59.424;13.482;2022-09-03T05:06:09;1.23;;;0.85;;
46216;SDS011;47258;59.424;13.482;2022-09-03T05:09:00;0.70;;;0.70;;
46216;SDS011;47258;59.424;13.482;2022-09-03T05:11:38;2.20;;;0.73;;
46216;SDS011;47258;59.424;13.482;2022-09-03T05:14:12;3.33;;;0.80;;
46216;SDS011;47258;59.424;13.482;2022-09-03T05:17:00;3.13;;;1.02;;
46216;SDS011;47258;59.424;13.482;2022-09-03T05:19:52;1.17;;;1.08;;
46216;SDS011;47258;59.424;13.482;2022-09-03T05:22:45;0.82;;;0.82;;
46216;SDS011;47258;59.424;13.482;2022-09-03T05:25:37;9.48;;;1.00;;
46216;SDS011;47258;59.424;13.482;2022-09-03T05:28:21;1.35;;;1.00;;
46216;SDS011;47258;59.424;13.482;2022-09-03T05:31:01;2.28;;;0.70;;
46216;SDS011;47258;59.424;13.482;2022-09-03T05:33:43;0.70;;;0.70;;
46216;SDS011;47258;59.424;13.482;2022-09-03T05:36:30;0.77;;;0.63;;
46216;SDS011;47258;59.424;13.482;2022-09-03T05:39:10;1.02;;;0.80;;
46216;SDS011;47258;59.424;13.482;2022-09-03T05:42:00;2.53;;;0.63;;
46216;SDS011;47258;59.424;13.482;2022-09-03T05:44:46;1.00;;;0.60;;
46216;SDS011;47258;59.424;13.482;2022-09-03T05:47:23;1.75;;;0.52;;
46216;SDS011;47258;59.424;13.482;2022-09-03T05:50:11;3.08;;;0.82;;
46216;SDS011;47258;59.424;13.482;2022-09-03T05:52:51;3.40;;;1.10;;
46216;SDS011;47258;59.424;13.482;2022-09-03T05:55:46;2.63;;;1.23;;
46216;SDS011;47258;59.424;13.482;2022-09-03T05:58:34;1.20;;;0.80;;
46216;SDS011;47258;59.424;13.482;2022-09-03T06:01:09;1.20;;;1.10;;
46216;SDS011;47258;59.424;13.482;2022-09-03T06:03:52;0.60;;;0.60;;
46216;SDS011;47258;59.424;13.482;2022-09-03T06:09:17;1.20;;;1.00;;
46216;SDS011;47258;59.424;13.482;2022-09-03T06:12:09;1.35;;;0.90;;
46216;SDS011;47258;59.424;13.482;2022-09-03T06:14:53;2.20;;;0.80;;
46216;SDS011;47258;59.424;13.482;2022-09-03T06:17:45;0.50;;;0.50;;
46216;SDS011;47258;59.424;13.482;2022-09-03T06:20:41;0.75;;;0.75;;
46216;SDS011;47258;59.424;13.482;2022-09-03T06:23:22;1.67;;;1.02;;
46216;SDS011;47258;59.424;13.482;2022-09-03T06:26:15;3.53;;;1.38;;
46216;SDS011;47258;59.424;13.482;2022-09-03T06:29:26;1.20;;;0.85;;
46216;SDS011;47258;59.424;13.482;2022-09-03T06:31:59;1.88;;;1.30;;
46216;SDS011;47258;59.424;13.482;2022-09-03T06:34:41;3.70;;;0.93;;
46216;SDS011;47258;59.424;13.482;2022-09-03T06:37:30;1.60;;;1.23;;
46216;SDS011;47258;59.424;13.482;2022-09-03T06:40:16;1.50;;;1.00;;
46216;SDS011;47258;59.424;13.482;2022-09-03T06:43:10;1.23;;;1.10;;
46216;SDS011;47258;59.424;13.482;2022-09-03T06:46:06;1.85;;;1.10;;
46216;SDS011;47258;59.424;13.482;2022-09-03T06:48:50;1.38;;;1.10;;
46216;SDS011;47258;59.424;13.482;2022-09-03T06:51:35;1.10;;;1.00;;
46216;SDS011;47258;59.424;13.482;2022-09-03T06:54:18;0.98;;;0.98;;
46216;SDS011;47258;59.424;13.482;2022-09-03T06:57:08;1.40;;;0.80;;
46216;SDS011;47258;59.424;13.482;2022-09-03T06:59:51;2.78;;;1.10;;
46216;SDS011;47258;59.424;13.482;2022-09-03T07:02:42;3.88;;;1.38;;
46216;SDS011;47258;59.424;13.482;2022-09-03T07:05:41;2.50;;;0.77;;
46216;SDS011;47258;59.424;13.482;2022-09-03T07:08:28;2.10;;;1.10;;
46216;SDS011;47258;59.424;13.482;2022-09-03T07:11:18;3.25;;;1.10;;
46216;SDS011;47258;59.424;13.482;2022-09-03T07:14:01;3.95;;;1.17;;
46216;SDS011;47258;59.424;13.482;2022-09-03T07:16:45;2.00;;;1.10;;
46216;SDS011;47258;59.424;13.482;2022-09-03T07:19:44;2.30;;;1.13;;
46216;SDS011;47258;59.424;13.482;2022-09-03T07:22:22;1.40;;;0.80;;
46216;SDS011;47258;59.424;13.482;2022-09-03T07:24:58;1.88;;;0.98;;
46216;SDS011;47258;59.424;13.482;2022-09-03T07:27:45;2.63;;;1.10;;
46216;SDS011;47258;59.424;13.482;2022-09-03T07:30:38;9.07;;;1.60;;
46216;SDS011;47258;59.424;13.482;2022-09-03T07:33:27;2.45;;;1.27;;
46216;SDS011;47258;59.424;13.482;2022-09-03T07:36:15;2.78;;;1.63;;
46216;SDS011;47258;59.424;13.482;2022-09-03T07:38:57;1.38;;;1.15;;
46216;SDS011;47258;59.424;13.482;2022-09-03T07:41:25;2.15;;;1.08;;
46216;SDS011;47258;59.424;13.482;2022-09-03T07:43:53;1.10;;;0.88;;
46216;SDS011;47258;59.424;13.482;2022-09-03T07:46:21;1.70;;;0.90;;
46216;SDS011;47258;59.424;13.482;2022-09-03T07:48:49;1.20;;;1.15;;
46216;SDS011;47258;59.424;13.482;2022-09-03T07:51:20;2.25;;;1.10;;
46216;SDS011;47258;59.424;13.482;2022-09-03T07:53:51;2.70;;;1.27;;
46216;SDS011;47258;59.424;13.482;2022-09-03T07:56:19;1.77;;;1.30;;
46216;SDS011;47258;59.424;13.482;2022-09-03T07:58:46;1.25;;;1.17;;
46216;SDS011;47258;59.424;13.482;2022-09-03T08:01:14;2.67;;;1.05;;
46216;SDS011;47258;59.424;13.482;2022-09-03T08:03:43;1.27;;;1.17;;
46216;SDS011;47258;59.424;13.482;2022-09-03T08:08:41;3.17;;;0.90;;
46216;SDS011;47258;59.424;13.482;2022-09-03T08:11:10;1.42;;;1.33;;
46216;SDS011;47258;59.424;13.482;2022-09-03T08:13:38;2.78;;;1.25;;
46216;SDS011;47258;59.424;13.482;2022-09-03T08:16:07;2.75;;;1.50;;
46216;SDS011;47258;59.424;13.482;2022-09-03T08:18:34;2.70;;;1.52;;
46216;SDS011;47258;59.424;13.482;2022-09-03T08:21:04;1.42;;;1.33;;
46216;SDS011;47258;59.424;13.482;2022-09-03T08:23:33;7.45;;;1.52;;
46216;SDS011;47258;59.424;13.482;2022-09-03T08:26:04;2.47;;;1.50;;
46216;SDS011;47258;59.424;13.482;2022-09-03T08:28:32;5.53;;;1.58;;
46216;SDS011;47258;59.424;13.482;2022-09-03T08:31:03;1.35;;;1.20;;
46216;SDS011;47258;59.424;13.482;2022-09-03T08:33:31;1.20;;;1.20;;
46216;SDS011;47258;59.424;13.482;2022-09-03T08:36:08;0.80;;;0.80;;
46216;SDS011;47258;59.424;13.482;2022-09-03T08:38:37;1.20;;;1.10;;
46216;SDS011;47258;59.424;13.482;2022-09-03T08:41:12;0.98;;;0.88;;
46216;SDS011;47258;59.424;13.482;2022-09-03T08:43:54;3.10;;;0.93;;
46216;SDS011;47258;59.424;13.482;2022-09-03T08:46:32;2.90;;;0.88;;
46216;SDS011;47258;59.424;13.482;2022-09-03T08:49:09;0.90;;;0.90;;
46216;SDS011;47258;59.424;13.482;2022-09-03T08:51:40;1.02;;;1.02;;
46216;SDS011;47258;59.424;13.482;2022-09-03T08:54:08;2.03;;;0.82;;
46216;SDS011;47258;59.424;13.482;2022-09-03T08:56:39;2.40;;;1.17;;
46216;SDS011;47258;59.424;13.482;2022-09-03T08:59:08;2.47;;;1.15;;
46216;SDS011;47258;59.424;13.482;2022-09-03T09:01:38;1.80;;;1.10;;
46216;SDS011;47258;59.424;13.482;2022-09-03T09:04:20;1.20;;;1.08;;
46216;SDS011;47258;59.424;13.482;2022-09-03T09:06:57;1.60;;;1.25;;
46216;SDS011;47258;59.424;13.482;2022-09-03T09:09:32;1.77;;;1.17;;
46216;SDS011;47258;59.424;13.482;2022-09-03T09:12:11;1.73;;;1.38;;
46216;SDS011;47258;59.424;13.482;2022-09-03T09:14:44;1.90;;;1.55;;
46216;SDS011;47258;59.424;13.482;2022-09-03T09:17:29;5.07;;;1.45;;
46216;SDS011;47258;59.424;13.482;2022-09-03T09:20:08;1.38;;;1.27;;
46216;SDS011;47258;59.424;13.482;2022-09-03T09:22:45;4.55;;;1.40;;
46216;SDS011;47258;59.424;13.482;2022-09-03T09:25:17;2.78;;;1.15;;
46216;SDS011;47258;59.424;13.482;2022-09-03T09:27:50;3.50;;;1.35;;
46216;SDS011;47258;59.424;13.482;2022-09-03T09:30:22;3.92;;;1.10;;
46216;SDS011;47258;59.424;13.482;2022-09-03T09:32:49;6.03;;;1.13;;
46216;SDS011;47258;59.424;13.482;2022-09-03T09:35:16;2.65;;;1.20;;
46216;SDS011;47258;59.424;13.482;2022-09-03T09:37:51;1.23;;;1.10;;
46216;SDS011;47258;59.424;13.482;2022-09-03T09:40:23;0.82;;;0.82;;
46216;SDS011;47258;59.424;13.482;2022-09-03T09:43:02;0.95;;;0.82;;
46216;SDS011;47258;59.424;13.482;2022-09-03T09:45:35;1.42;;;0.90;;
46216;SDS011;47258;59.424;13.482;2022-09-03T09:48:07;1.00;;;1.00;;
46216;SDS011;47258;59.424;13.482;2022-09-03T09:50:39;1.98;;;0.90;;
46216;SDS011;47258;59.424;13.482;2022-09-03T09:53:08;1.08;;;1.08;;
46216;SDS011;47258;59.424;13.482;2022-09-03T09:55:50;1.27;;;1.17;;
46216;SDS011;47258;59.424;13.482;2022-09-03T09:58:20;1.90;;;0.90;;
46216;SDS011;47258;59.424;13.482;2022-09-03T10:03:40;3.30;;;1.48;;
46216;SDS011;47258;59.424;13.482;2022-09-03T10:06:16;1.83;;;1.05;;
46216;SDS011;47258;59.424;13.482;2022-09-03T10:09:05;1.40;;;0.88;;
46216;SDS011;47258;59.424;13.482;2022-09-03T10:11:33;5.35;;;1.42;;
46216;SDS011;47258;59.424;13.482;2022-09-03T10:14:03;0.95;;;0.77;;
46216;SDS011;47258;59.424;13.482;2022-09-03T10:16:39;1.77;;;1.10;;
46216;SDS011;47258;59.424;13.482;2022-09-03T10:19:15;2.20;;;1.27;;
46216;SDS011;47258;59.424;13.482;2022-09-03T10:21:44;1.42;;;1.23;;
46216;SDS011;47258;59.424;13.482;2022-09-03T10:24:29;5.07;;;0.95;;
46216;SDS011;47258;59.424;13.482;2022-09-03T10:27:05;1.38;;;1.27;;
46216;SDS011;47258;59.424;13.482;2022-09-03T10:29:35;1.30;;;1.20;;
46216;SDS011;47258;59.424;13.482;2022-09-03T10:32:08;1.88;;;1.00;;
46216;SDS011;47258;59.424;13.482;2022-09-03T10:34:49;4.30;;;1.40;;
46216;SDS011;47258;59.424;13.482;2022-09-03T10:37:25;1.98;;;1.30;;
46216;SDS011;47258;59.424;13.482;2022-09-03T10:40:04;1.90;;;1.33;;
46216;SDS011;47258;59.424;13.482;2022-09-03T10:42:46;2.42;;;1.50;;
46216;SDS011;47258;59.424;13.482;2022-09-03T10:45:21;2.22;;;1.10;;
46216;SDS011;47258;59.424;13.482;2022-09-03T10:48:07;3.83;;;1.45;;
46216;SDS011;47258;59.424;13.482;2022-09-03T10:50:45;1.58;;;1.17;;
46216;SDS011;47258;59.424;13.482;2022-09-03T10:53:25;1.25;;;1.25;;
46216;SDS011;47258;59.424;13.482;2022-09-03T10:56:04;0.88;;;0.88;;
46216;SDS011;47258;59.424;13.482;2022-09-03T10:58:41;2.10;;;1.42;;
46216;SDS011;47258;59.424;13.482;2022-09-03T11:01:20;0.98;;;0.98;;
46216;SDS011;47258;59.424;13.482;2022-09-03T11:03:55;1.52;;;1.42;;
46216;SDS011;47258;59.424;13.482;2022-09-03T11:06:46;5.05;;;1.20;;
46216;SDS011;47258;59.424;13.482;2022-09-03T11:09:19;1.42;;;1.17;;
46216;SDS011;47258;59.424;13.482;2022-09-03T11:11:50;2.03;;;1.42;;
46216;SDS011;47258;59.424;13.482;2022-09-03T11:14:27;1.15;;;1.10;;
46216;SDS011;47258;59.424;13.482;2022-09-03T11:17:02;2.25;;;1.38;;
46216;SDS011;47258;59.424;13.482;2022-09-03T11:19:35;1.35;;;1.17;;
46216;SDS011;47258;59.424;13.482;2022-09-03T11:22:12;1.35;;;1.30;;
46216;SDS011;47258;59.424;13.482;2022-09-03T11:24:41;1.42;;;1.30;;
46216;SDS011;47258;59.424;13.482;2022-09-03T11:27:17;2.13;;;1.73;;
46216;SDS011;47258;59.424;13.482;2022-09-03T11:29:52;1.35;;;1.25;;
46216;SDS011;47258;59.424;13.482;2022-09-03T11:32:27;1.33;;;1.23;;
46216;SDS011;47258;59.424;13.482;2022-09-03T11:34:58;2.72;;;1.27;;
46216;SDS011;47258;59.424;13.482;2022-09-03T11:37:26;2.30;;;1.50;;
46216;SDS011;47258;59.424;13.482;2022-09-03T11:39:57;2.80;;;1.95;;
46216;SDS011;47258;59.424;13.482;2022-09-03T11:42:31;1.05;;;1.05;;
46216;SDS011;47258;59.424;13.482;2022-09-03T11:45:19;1.70;;;1.27;;
46216;SDS011;47258;59.424;13.482;2022-09-03T11:47:50;1.60;;;0.88;;
46216;SDS011;47258;59.424;13.482;2022-09-03T11:50:19;1.38;;;1.27;;
46216;SDS011;47258;59.424;13.482;2022-09-03T11:52:50;2.05;;;1.50;;
46216;SDS011;47258;59.424;13.482;2022-09-03T11:55:25;1.20;;;1.10;;
46216;SDS011;47258;59.424;13.482;2022-09-03T11:57:55;0.77;;;0.77;;
46216;SDS011;47258;59.424;13.482;2022-09-03T12:00:22;1.35;;;1.27;;
46216;SDS011;47258;59.424;13.482;2022-09-03T12:02:54;1.13;;;1.02;;
46216;SDS011;47258;59.424;13.482;2022-09-03T12:05:25;2.67;;;1.35;;
46216;SDS011;47258;59.424;13.482;2022-09-03T12:11:10;1.00;;;0.95;;
46216;SDS011;47258;59.424;13.482;2022-09-03T12:13:50;1.10;;;1.00;;
46216;SDS011;47258;59.424;13.482;2022-09-03T12:16:24;1.10;;;0.98;;
46216;SDS011;47258;59.424;13.482;2022-09-03T12:19:09;1.98;;;1.70;;
46216;SDS011;47258;59.424;13.482;2022-09-03T12:21:50;2.90;;;2.25;;
46216;SDS011;47258;59.424;13.482;2022-09-03T12:24:19;1.65;;;1.55;;
46216;SDS011;47258;59.424;13.482;2022-09-03T12:26:47;2.55;;;1.50;;
46216;SDS011;47258;59.424;13.482;2022-09-03T12:29:24;2.13;;;1.20;;
46216;SDS011;47258;59.424;13.482;2022-09-03T12:31:53;3.40;;;1.50;;
46216;SDS011;47258;59.424;13.482;2022-09-03T12:34:22;3.08;;;1.50;;
46216;SDS011;47258;59.424;13.482;2022-09-03T12:36:52;2.78;;;1.40;;
46216;SDS011;47258;59.424;13.482;2022-09-03T12:39:20;3.10;;;1.53;;
46216;SDS011;47258;59.424;13.482;2022-09-03T12:41:52;2.20;;;1.40;;
46216;SDS011;47258;59.424;13.482;2022-09-03T12:44:26;4.25;;;1.88;;
46216;SDS011;47258;59.424;13.482;2022-09-03T12:47:05;6.78;;;2.63;;
46216;SDS011;47258;59.424;13.482;2022-09-03T12:49:56;2.03;;;1.92;;
46216;SDS011;47258;59.424;13.482;2022-09-03T12:52:44;2.33;;;2.10;;
46216;SDS011;47258;59.424;13.482;2022-09-03T12:55:45;1.65;;;1.45;;
46216;SDS011;47258;59.424;13.482;2022-09-03T12:58:25;2.40;;;1.80;;
46216;SDS011;47258;59.424;13.482;2022-09-03T13:01:07;3.10;;;1.58;;
46216;SDS011;47258;59.424;13.482;2022-09-03T13:03:42;4.97;;;1.50;;
46216;SDS011;47258;59.424;13.482;2022-09-03T13:06:25;2.92;;;2.63;;
46216;SDS011;47258;59.424;13.482;2022-09-03T13:09:09;1.77;;;1.67;;
46216;SDS011;47258;59.424;13.482;2022-09-03T13:12:04;1.73;;;1.48;;
46216;SDS011;47258;59.424;13.482;2022-09-03T13:14:56;1.58;;;1.48;;
46216;SDS011;47258;59.424;13.482;2022-09-03T13:18:02;1.80;;;1.70;;
46216;SDS011;47258;59.424;13.482;2022-09-03T13:21:07;1.67;;;1.50;;
46216;SDS011;47258;59.424;13.482;2022-09-03T13:24:15;2.15;;;1.30;;
46216;SDS011;47258;59.424;13.482;2022-09-03T13:27:24;2.72;;;1.67;;
46216;SDS011;47258;59.424;13.482;2022-09-03T13:30:07;2.38;;;1.75;;
46216;SDS011;47258;59.424;13.482;2022-09-03T13:32:54;1.60;;;1.25;;
46216;SDS011;47258;59.424;13.482;2022-09-03T13:35:46;2.63;;;1.50;;
46216;SDS011;47258;59.424;13.482;2022-09-03T13:38:43;1.77;;;1.13;;
46216;SDS011;47258;59.424;13.482;2022-09-03T13:41:45;1.60;;;1.50;;
46216;SDS011;47258;59.424;13.482;2022-09-03T13:44:30;2.58;;;1.00;;
46216;SDS011;47258;59.424;13.482;2022-09-03T13:47:21;4.28;;;1.92;;
46216;SDS011;47258;59.424;13.482;2022-09-03T13:50:35;2.40;;;1.60;;
46216;SDS011;47258;59.424;13.482;2022-09-03T13:53:18;1.95;;;1.33;;
46216;SDS011;47258;59.424;13.482;2022-09-03T13:56:15;2.63;;;1.85;;
46216;SDS011;47258;59.424;13.482;2022-09-03T13:59:24;1.75;;;1.20;;
46216;SDS011;47258;59.424;13.482;2022-09-03T14:02:21;3.30;;;1.50;;
46216;SDS011;47258;59.424;13.482;2022-09-03T14:05:16;1.77;;;1.67;;
46216;SDS011;47258;59.424;13.482;2022-09-03T14:08:14;1.80;;;1.70;;
46216;SDS011;47258;59.424;13.482;2022-09-03T14:11:20;2.03;;;1.45;;
46216;SDS011;47258;59.424;13.482;2022-09-03T14:27:48;1.48;;;1.38;;
46216;SDS011;47258;59.424;13.482;2022-09-03T14:30:36;1.52;;;1.40;;
46216;SDS011;47258;59.424;13.482;2022-09-03T14:33:31;1.50;;;1.40;;
46216;SDS011;47258;59.424;13.482;2022-09-03T14:36:25;2.22;;;1.52;;
46216;SDS011;47258;59.424;13.482;2022-09-03T14:39:33;2.97;;;1.50;;
46216;SDS011;47258;59.424;13.482;2022-09-03T14:45:55;2.28;;;1.38;;
46216;SDS011;47258;59.424;13.482;2022-09-03T14:49:06;1.08;;;1.08;;
46216;SDS011;47258;59.424;13.482;2022-09-03T14:55:31;3.42;;;1.83;;
46216;SDS011;47258;59.424;13.482;2022-09-03T14:58:57;1.70;;;1.60;;
46216;SDS011;47258;59.424;13.482;2022-09-03T15:01:54;1.55;;;1.45;;
46216;SDS011;47258;59.424;13.482;2022-09-03T15:05:05;3.22;;;1.52;;
46216;SDS011;47258;59.424;13.482;2022-09-03T15:07:55;5.07;;;1.80;;
46216;SDS011;47258;59.424;13.482;2022-09-03T15:10:43;1.52;;;1.42;;
46216;SDS011;47258;59.424;13.482;2022-09-03T15:13:32;2.25;;;1.52;;
46216;SDS011;47258;59.424;13.482;2022-09-03T15:16:35;2.67;;;1.63;;
46216;SDS011;47258;59.424;13.482;2022-09-03T15:22:12;5.40;;;1.48;;
46216;SDS011;47258;59.424;13.482;2022-09-03T15:25:14;1.58;;;1.48;;
46216;SDS011;47258;59.424;13.482;2022-09-03T15:28:06;4.00;;;1.25;;
46216;SDS011;47258;59.424;13.482;2022-09-03T15:31:01;3.33;;;1.27;;
46216;SDS011;47258;59.424;13.482;2022-09-03T15:39:02;1.33;;;1.02;;
46216;SDS011;47258;59.424;13.482;2022-09-03T15:41:35;0.98;;;0.98;;
46216;SDS011;47258;59.424;13.482;2022-09-03T15:44:07;2.22;;;1.50;;
46216;SDS011;47258;59.424;13.482;2022-09-03T15:46:44;3.13;;;1.15;;
46216;SDS011;47258;59.424;13.482;2022-09-03T15:49:21;1.40;;;1.30;;
46216;SDS011;47258;59.424;13.482;2022-09-03T15:52:09;2.58;;;1.73;;
46216;SDS011;47258;59.424;13.482;2022-09-03T15:54:52;1.02;;;1.02;;
46216;SDS011;47258;59.424;13.482;2022-09-03T15:57:27;1.75;;;1.40;;
46216;SDS011;47258;59.424;13.482;2022-09-03T15:59:59;2.85;;;1.25;;
46216;SDS011;47258;59.424;13.482;2022-09-03T16:02:32;0.93;;;0.93;;
46216;SDS011;47258;59.424;13.482;2022-09-03T16:05:10;1.15;;;1.00;;
46216;SDS011;47258;59.424;13.482;2022-09-03T16:07:53;1.40;;;1.25;;
46216;SDS011;47258;59.424;13.482;2022-09-03T16:10:47;2.58;;;1.30;;
46216;SDS011;47258;59.424;13.482;2022-09-03T16:13:29;1.08;;;0.98;;
46216;SDS011;47258;59.424;13.482;2022-09-03T16:16:04;2.55;;;1.00;;
46216;SDS011;47258;59.424;13.482;2022-09-03T16:18:35;2.13;;;1.30;;
46216;SDS011;47258;59.424;13.482;2022-09-03T16:21:08;3.38;;;0.98;;
46216;SDS011;47258;59.424;13.482;2022-09-03T16:23:40;2.35;;;0.88;;
46216;SDS011;47258;59.424;13.482;2022-09-03T16:26:17;1.15;;;0.90;;
46216;SDS011;47258;59.424;13.482;2022-09-03T16:28:51;0.75;;;0.75;;
46216;SDS011;47258;59.424;13.482;2022-09-03T16:31:25;0.90;;;0.90;;
46216;SDS011;47258;59.424;13.482;2022-09-03T16:34:05;1.50;;;1.00;;
46216;SDS011;47258;59.424;13.482;2022-09-03T16:36:42;1.02;;;1.00;;
46216;SDS011;47258;59.424;13.482;2022-09-03T16:39:15;1.30;;;1.00;;
46216;SDS011;47258;59.424;13.482;2022-09-03T16:41:55;2.95;;;0.80;;
46216;SDS011;47258;59.424;13.482;2022-09-03T16:44:30;0.98;;;0.90;;
46216;SDS011;47258;59.424;13.482;2022-09-03T16:47:11;1.00;;;1.00;;
46216;SDS011;47258;59.424;13.482;2022-09-03T16:49:49;0.98;;;0.98;;
46216;SDS011;47258;59.424;13.482;2022-09-03T16:52:27;0.63;;;0.63;;
46216;SDS011;47258;59.424;13.482;2022-09-03T16:55:02;0.85;;;0.85;;
46216;SDS011;47258;59.424;13.482;2022-09-03T16:57:43;1.80;;;0.93;;
46216;SDS011;47258;59.424;13.482;2022-09-03T17:00:19;2.00;;;0.98;;